sensor_id;sensor_type;location;lat;lon;timestamp;pressure;altitude;pressure_sealevel;temperature;humidity
77017;BME280;65949;53.132;17.930;2023-11-19T00:02:27;101742.02;;;-0.75;89.12
77017;BME280;65949;53.132;17.930;2023-11-19T00:04:54;101746.20;;;-0.76;89.16
77017;BME280;65949;53.132;17.930;2023-11-19T00:07:20;101744.50;;;-0.77;89.01
77017;BME280;65949;53.132;17.930;2023-11-19T00:09:47;101733.96;;;-0.79;89.02
77017;BME280;65949;53.132;17.930;2023-11-19T00:12:13;101724.50;;;-0.80;89.06
77017;BME280;65949;53.132;17.930;2023-11-19T00:14:40;101721.29;;;-0.82;89.11
77017;BME280;65949;53.132;17.930;2023-11-19T00:17:07;101715.15;;;-0.84;89.12
77017;BME280;65949;53.132;17.930;2023-11-19T00:19:34;101714.55;;;-0.87;89.14
77017;BME280;65949;53.132;17.930;2023-11-19T00:22:00;101716.17;;;-0.87;89.35
77017;BME280;65949;53.132;17.930;2023-11-19T00:24:30;101710.53;;;-0.87;89.52
77017;BME280;65949;53.132;17.930;2023-11-19T00:26:57;101710.66;;;-0.87;89.74
77017;BME280;65949;53.132;17.930;2023-11-19T00:29:23;101716.75;;;-0.86;89.57
77017;BME280;65949;53.132;17.930;2023-11-19T00:31:50;101713.92;;;-0.87;89.60
77017;BME280;65949;53.132;17.930;2023-11-19T00:34:16;101710.81;;;-0.87;89.78
77017;BME280;65949;53.132;17.930;2023-11-19T00:36:47;101708.34;;;-0.86;89.85
77017;BME280;65949;53.132;17.930;2023-11-19T00:39:15;101705.56;;;-0.84;89.94
77017;BME280;65949;53.132;17.930;2023-11-19T00:41:42;101699.00;;;-0.83;89.98
77017;BME280;65949;53.132;17.930;2023-11-19T00:44:09;101692.30;;;-0.83;89.88
77017;BME280;65949;53.132;17.930;2023-11-19T00:46:35;101686.10;;;-0.82;89.90
77017;BME280;65949;53.132;17.930;2023-11-19T00:49:03;101677.67;;;-0.81;89.92
77017;BME280;65949;53.132;17.930;2023-11-19T00:51:29;101674.95;;;-0.82;89.81
77017;BME280;65949;53.132;17.930;2023-11-19T00:53:58;101671.23;;;-0.84;89.67
77017;BME280;65949;53.132;17.930;2023-11-19T00:56:25;101670.70;;;-0.85;89.83
77017;BME280;65949;53.132;17.930;2023-11-19T00:58:52;101670.98;;;-0.86;89.65
77017;BME280;65949;53.132;17.930;2023-11-19T01:01:18;101668.16;;;-0.87;89.95
77017;BME280;65949;53.132;17.930;2023-11-19T01:03:45;101664.88;;;-0.88;89.93
77017;BME280;65949;53.132;17.930;2023-11-19T01:06:12;101658.59;;;-0.88;89.87
77017;BME280;65949;53.132;17.930;2023-11-19T01:08:39;101643.27;;;-0.89;89.95
77017;BME280;65949;53.132;17.930;2023-11-19T01:11:05;101637.95;;;-0.90;89.72
77017;BME280;65949;53.132;17.930;2023-11-19T01:13:32;101632.54;;;-0.92;89.87
77017;BME280;65949;53.132;17.930;2023-11-19T01:15:59;101627.77;;;-0.94;89.97
77017;BME280;65949;53.132;17.930;2023-11-19T01:18:28;101628.51;;;-0.94;89.96
77017;BME280;65949;53.132;17.930;2023-11-19T01:20:55;101626.94;;;-0.96;89.79
77017;BME280;65949;53.132;17.930;2023-11-19T01:23:21;101620.66;;;-0.96;89.93
77017;BME280;65949;53.132;17.930;2023-11-19T01:25:48;101619.74;;;-0.99;89.77
77017;BME280;65949;53.132;17.930;2023-11-19T01:28:14;101620.31;;;-1.01;89.81
77017;BME280;65949;53.132;17.930;2023-11-19T01:30:41;101613.17;;;-1.03;89.96
77017;BME280;65949;53.132;17.930;2023-11-19T01:33:07;101617.30;;;-1.07;89.87
77017;BME280;65949;53.132;17.930;2023-11-19T01:35:34;101619.12;;;-1.09;89.86
77017;BME280;65949;53.132;17.930;2023-11-19T01:38:01;101612.18;;;-1.11;90.03
77017;BME280;65949;53.132;17.930;2023-11-19T01:40:27;101603.34;;;-1.14;90.06
77017;BME280;65949;53.132;17.930;2023-11-19T01:42:54;101600.93;;;-1.17;90.16
77017;BME280;65949;53.132;17.930;2023-11-19T01:45:27;101589.78;;;-1.18;90.19
77017;BME280;65949;53.132;17.930;2023-11-19T01:48:03;101579.39;;;-1.19;90.06
77017;BME280;65949;53.132;17.930;2023-11-19T01:50:31;101572.59;;;-1.21;90.14
77017;BME280;65949;53.132;17.930;2023-11-19T01:52:59;101567.81;;;-1.21;90.25
77017;BME280;65949;53.132;17.930;2023-11-19T01:55:27;101560.55;;;-1.22;90.22
77017;BME280;65949;53.132;17.930;2023-11-19T01:57:59;101552.57;;;-1.22;90.21
77017;BME280;65949;53.132;17.930;2023-11-19T02:00:28;101548.56;;;-1.23;90.22
77017;BME280;65949;53.132;17.930;2023-11-19T02:02:55;101547.42;;;-1.23;90.29
77017;BME280;65949;53.132;17.930;2023-11-19T02:05:22;101542.77;;;-1.23;90.22
77017;BME280;65949;53.132;17.930;2023-11-19T02:07:49;101540.58;;;-1.23;90.27
77017;BME280;65949;53.132;17.930;2023-11-19T02:10:17;101542.65;;;-1.24;90.17
77017;BME280;65949;53.132;17.930;2023-11-19T02:12:45;101547.80;;;-1.24;90.02
77017;BME280;65949;53.132;17.930;2023-11-19T02:15:12;101548.59;;;-1.25;90.07
77017;BME280;65949;53.132;17.930;2023-11-19T02:17:39;101539.98;;;-1.26;90.03
77017;BME280;65949;53.132;17.930;2023-11-19T02:20:06;101529.13;;;-1.26;90.07
77017;BME280;65949;53.132;17.930;2023-11-19T02:22:37;101518.42;;;-1.26;90.22
77017;BME280;65949;53.132;17.930;2023-11-19T02:25:07;101508.60;;;-1.27;90.12
77017;BME280;65949;53.132;17.930;2023-11-19T02:30:12;101493.15;;;-1.26;90.23
77017;BME280;65949;53.132;17.930;2023-11-19T02:32:41;101489.04;;;-1.26;90.29
77017;BME280;65949;53.132;17.930;2023-11-19T02:35:08;101489.84;;;-1.26;90.37
77017;BME280;65949;53.132;17.930;2023-11-19T02:37:35;101493.27;;;-1.23;90.51
77017;BME280;65949;53.132;17.930;2023-11-19T02:40:01;101484.04;;;-1.20;90.38
77017;BME280;65949;53.132;17.930;2023-11-19T02:42:29;101480.10;;;-1.19;90.39
77017;BME280;65949;53.132;17.930;2023-11-19T02:44:57;101473.30;;;-1.17;90.43
77017;BME280;65949;53.132;17.930;2023-11-19T02:47:23;101466.69;;;-1.16;90.34
77017;BME280;65949;53.132;17.930;2023-11-19T02:49:50;101453.20;;;-1.14;90.40
77017;BME280;65949;53.132;17.930;2023-11-19T02:52:17;101445.17;;;-1.13;90.46
77017;BME280;65949;53.132;17.930;2023-11-19T02:54:45;101444.96;;;-1.12;90.42
77017;BME280;65949;53.132;17.930;2023-11-19T02:57:11;101445.83;;;-1.10;90.62
77017;BME280;65949;53.132;17.930;2023-11-19T02:59:39;101443.95;;;-1.07;90.56
77017;BME280;65949;53.132;17.930;2023-11-19T03:02:08;101444.97;;;-1.04;90.76
77017;BME280;65949;53.132;17.930;2023-11-19T03:04:38;101436.80;;;-1.01;90.73
77017;BME280;65949;53.132;17.930;2023-11-19T03:07:09;101433.02;;;-0.97;90.72
77017;BME280;65949;53.132;17.930;2023-11-19T03:09:35;101433.61;;;-0.93;90.84
77017;BME280;65949;53.132;17.930;2023-11-19T03:12:02;101422.51;;;-0.90;90.65
77017;BME280;65949;53.132;17.930;2023-11-19T03:14:33;101414.40;;;-0.89;90.49
77017;BME280;65949;53.132;17.930;2023-11-19T03:17:00;101411.34;;;-0.88;90.46
77017;BME280;65949;53.132;17.930;2023-11-19T03:19:27;101396.23;;;-0.87;90.52
77017;BME280;65949;53.132;17.930;2023-11-19T03:21:54;101383.59;;;-0.87;90.38
77017;BME280;65949;53.132;17.930;2023-11-19T03:24:21;101374.77;;;-0.87;90.49
77017;BME280;65949;53.132;17.930;2023-11-19T03:26:48;101367.11;;;-0.87;90.65
77017;BME280;65949;53.132;17.930;2023-11-19T03:29:16;101363.05;;;-0.87;90.64
77017;BME280;65949;53.132;17.930;2023-11-19T03:31:43;101351.73;;;-0.87;90.65
77017;BME280;65949;53.132;17.930;2023-11-19T03:34:11;101339.48;;;-0.87;90.63
77017;BME280;65949;53.132;17.930;2023-11-19T03:36:37;101341.94;;;-0.88;90.65
77017;BME280;65949;53.132;17.930;2023-11-19T03:39:04;101337.75;;;-0.87;90.67
77017;BME280;65949;53.132;17.930;2023-11-19T03:41:31;101333.55;;;-0.86;90.75
77017;BME280;65949;53.132;17.930;2023-11-19T03:43:57;101325.88;;;-0.85;90.60
77017;BME280;65949;53.132;17.930;2023-11-19T03:46:24;101322.80;;;-0.83;90.59
77017;BME280;65949;53.132;17.930;2023-11-19T03:48:50;101324.83;;;-0.83;90.56
77017;BME280;65949;53.132;17.930;2023-11-19T03:51:18;101325.63;;;-0.80;90.58
77017;BME280;65949;53.132;17.930;2023-11-19T03:53:45;101328.30;;;-0.78;90.47
77017;BME280;65949;53.132;17.930;2023-11-19T03:56:12;101326.86;;;-0.76;90.42
77017;BME280;65949;53.132;17.930;2023-11-19T03:58:39;101328.48;;;-0.74;90.37
77017;BME280;65949;53.132;17.930;2023-11-19T04:01:11;101320.23;;;-0.72;90.19
77017;BME280;65949;53.132;17.930;2023-11-19T04:03:38;101313.38;;;-0.70;90.04
77017;BME280;65949;53.132;17.930;2023-11-19T04:06:04;101306.95;;;-0.69;90.08
77017;BME280;65949;53.132;17.930;2023-11-19T04:08:31;101302.75;;;-0.66;90.08
77017;BME280;65949;53.132;17.930;2023-11-19T04:10:58;101300.83;;;-0.64;90.03
77017;BME280;65949;53.132;17.930;2023-11-19T04:13:24;101301.42;;;-0.62;90.05
77017;BME280;65949;53.132;17.930;2023-11-19T04:15:51;101299.06;;;-0.61;89.80
77017;BME280;65949;53.132;17.930;2023-11-19T04:18:17;101294.70;;;-0.58;89.82
77017;BME280;65949;53.132;17.930;2023-11-19T04:20:44;101286.54;;;-0.57;89.75
77017;BME280;65949;53.132;17.930;2023-11-19T04:23:11;101276.42;;;-0.55;89.73
77017;BME280;65949;53.132;17.930;2023-11-19T04:25:37;101267.17;;;-0.55;89.41
77017;BME280;65949;53.132;17.930;2023-11-19T04:28:04;101262.11;;;-0.55;89.43
77017;BME280;65949;53.132;17.930;2023-11-19T04:30:31;101265.21;;;-0.55;89.30
77017;BME280;65949;53.132;17.930;2023-11-19T04:33:01;101262.98;;;-0.55;89.49
77017;BME280;65949;53.132;17.930;2023-11-19T04:35:28;101263.05;;;-0.54;89.39
77017;BME280;65949;53.132;17.930;2023-11-19T04:37:54;101258.39;;;-0.52;89.40
77017;BME280;65949;53.132;17.930;2023-11-19T04:40:23;101252.60;;;-0.52;89.10
77017;BME280;65949;53.132;17.930;2023-11-19T04:42:50;101244.23;;;-0.52;89.23
77017;BME280;65949;53.132;17.930;2023-11-19T04:45:17;101231.86;;;-0.53;89.25
77017;BME280;65949;53.132;17.930;2023-11-19T04:47:43;101223.72;;;-0.54;89.23
77017;BME280;65949;53.132;17.930;2023-11-19T04:50:10;101214.77;;;-0.53;89.14
77017;BME280;65949;53.132;17.930;2023-11-19T04:52:38;101216.09;;;-0.52;89.18
77017;BME280;65949;53.132;17.930;2023-11-19T04:55:12;101206.39;;;-0.53;88.98
77017;BME280;65949;53.132;17.930;2023-11-19T04:57:40;101206.08;;;-0.53;89.16
77017;BME280;65949;53.132;17.930;2023-11-19T05:00:08;101198.42;;;-0.53;89.07
77017;BME280;65949;53.132;17.930;2023-11-19T05:02:34;101193.21;;;-0.53;89.25
77017;BME280;65949;53.132;17.930;2023-11-19T05:05:01;101186.23;;;-0.51;89.08
77017;BME280;65949;53.132;17.930;2023-11-19T05:07:30;101185.20;;;-0.49;89.23
77017;BME280;65949;53.132;17.930;2023-11-19T05:09:57;101184.06;;;-0.47;89.29
77017;BME280;65949;53.132;17.930;2023-11-19T05:12:24;101187.73;;;-0.45;89.17
77017;BME280;65949;53.132;17.930;2023-11-19T05:14:51;101183.73;;;-0.42;89.08
77017;BME280;65949;53.132;17.930;2023-11-19T05:17:18;101183.84;;;-0.40;89.14
77017;BME280;65949;53.132;17.930;2023-11-19T05:19:45;101178.83;;;-0.38;89.31
77017;BME280;65949;53.132;17.930;2023-11-19T05:22:12;101171.62;;;-0.37;88.99
77017;BME280;65949;53.132;17.930;2023-11-19T05:24:39;101164.03;;;-0.36;89.00
77017;BME280;65949;53.132;17.930;2023-11-19T05:27:07;101158.14;;;-0.35;89.04
77017;BME280;65949;53.132;17.930;2023-11-19T05:29:34;101151.31;;;-0.33;89.25
77017;BME280;65949;53.132;17.930;2023-11-19T05:32:00;101144.20;;;-0.33;89.00
77017;BME280;65949;53.132;17.930;2023-11-19T05:34:27;101142.45;;;-0.31;89.10
77017;BME280;65949;53.132;17.930;2023-11-19T05:36:54;101144.40;;;-0.28;89.07
77017;BME280;65949;53.132;17.930;2023-11-19T05:39:20;101143.83;;;-0.26;89.29
77017;BME280;65949;53.132;17.930;2023-11-19T05:41:48;101140.66;;;-0.25;88.99
77017;BME280;65949;53.132;17.930;2023-11-19T05:44:14;101138.80;;;-0.26;89.12
77017;BME280;65949;53.132;17.930;2023-11-19T05:46:41;101140.08;;;-0.25;88.96
77017;BME280;65949;53.132;17.930;2023-11-19T05:49:10;101138.70;;;-0.25;89.09
77017;BME280;65949;53.132;17.930;2023-11-19T05:51:38;101136.33;;;-0.25;89.20
77017;BME280;65949;53.132;17.930;2023-11-19T05:54:09;101125.55;;;-0.25;89.17
77017;BME280;65949;53.132;17.930;2023-11-19T05:56:36;101123.71;;;-0.24;89.21
77017;BME280;65949;53.132;17.930;2023-11-19T05:59:03;101122.75;;;-0.22;89.28
77017;BME280;65949;53.132;17.930;2023-11-19T06:01:34;101117.08;;;-0.22;89.33
77017;BME280;65949;53.132;17.930;2023-11-19T06:04:00;101115.41;;;-0.21;89.27
77017;BME280;65949;53.132;17.930;2023-11-19T06:06:28;101112.48;;;-0.19;89.27
77017;BME280;65949;53.132;17.930;2023-11-19T06:08:55;101105.48;;;-0.18;89.27
77017;BME280;65949;53.132;17.930;2023-11-19T06:11:21;101095.81;;;-0.17;89.16
77017;BME280;65949;53.132;17.930;2023-11-19T06:13:48;101084.77;;;-0.17;89.11
77017;BME280;65949;53.132;17.930;2023-11-19T06:16:17;101072.67;;;-0.18;88.99
77017;BME280;65949;53.132;17.930;2023-11-19T06:18:44;101068.31;;;-0.18;88.95
77017;BME280;65949;53.132;17.930;2023-11-19T06:21:12;101068.99;;;-0.18;88.98
77017;BME280;65949;53.132;17.930;2023-11-19T06:23:38;101071.10;;;-0.17;88.98
77017;BME280;65949;53.132;17.930;2023-11-19T06:26:05;101061.27;;;-0.16;88.84
77017;BME280;65949;53.132;17.930;2023-11-19T06:28:31;101054.02;;;-0.16;88.92
77017;BME280;65949;53.132;17.930;2023-11-19T06:30:58;101054.87;;;-0.14;88.63
77017;BME280;65949;53.132;17.930;2023-11-19T06:33:25;101053.67;;;-0.13;88.90
77017;BME280;65949;53.132;17.930;2023-11-19T06:35:51;101043.69;;;-0.11;88.67
77017;BME280;65949;53.132;17.930;2023-11-19T06:38:18;101039.33;;;-0.08;88.40
77017;BME280;65949;53.132;17.930;2023-11-19T06:40:45;101034.63;;;-0.06;88.61
77017;BME280;65949;53.132;17.930;2023-11-19T06:43:11;101031.81;;;-0.04;88.31
77017;BME280;65949;53.132;17.930;2023-11-19T06:45:38;101036.23;;;-0.02;88.27
77017;BME280;65949;53.132;17.930;2023-11-19T06:48:05;101032.39;;;-0.00;88.29
77017;BME280;65949;53.132;17.930;2023-11-19T06:50:32;101029.16;;;0.03;88.12
77017;BME280;65949;53.132;17.930;2023-11-19T06:52:58;101019.96;;;0.04;88.28
77017;BME280;65949;53.132;17.930;2023-11-19T06:55:26;101014.56;;;0.08;87.94
77017;BME280;65949;53.132;17.930;2023-11-19T06:57:53;101016.46;;;0.11;88.11
77017;BME280;65949;53.132;17.930;2023-11-19T07:00:19;101006.33;;;0.13;87.96
77017;BME280;65949;53.132;17.930;2023-11-19T07:02:46;101000.41;;;0.15;87.98
77017;BME280;65949;53.132;17.930;2023-11-19T07:05:13;100993.80;;;0.18;87.82
77017;BME280;65949;53.132;17.930;2023-11-19T07:07:39;100988.00;;;0.19;88.00
77017;BME280;65949;53.132;17.930;2023-11-19T07:10:07;100984.36;;;0.21;87.96
77017;BME280;65949;53.132;17.930;2023-11-19T07:12:35;100986.15;;;0.23;87.80
77017;BME280;65949;53.132;17.930;2023-11-19T07:15:03;100982.09;;;0.25;87.82
77017;BME280;65949;53.132;17.930;2023-11-19T07:17:30;100976.94;;;0.26;87.81
77017;BME280;65949;53.132;17.930;2023-11-19T07:19:57;100969.88;;;0.27;87.68
77017;BME280;65949;53.132;17.930;2023-11-19T07:22:26;100970.90;;;0.27;87.52
77017;BME280;65949;53.132;17.930;2023-11-19T07:24:55;100971.91;;;0.28;87.62
77017;BME280;65949;53.132;17.930;2023-11-19T07:27:22;100970.27;;;0.29;87.47
77017;BME280;65949;53.132;17.930;2023-11-19T07:29:50;100968.00;;;0.31;87.55
77017;BME280;65949;53.132;17.930;2023-11-19T07:32:17;100963.80;;;0.33;87.66
77017;BME280;65949;53.132;17.930;2023-11-19T07:34:44;100957.23;;;0.37;87.42
77017;BME280;65949;53.132;17.930;2023-11-19T07:37:11;100956.05;;;0.38;86.97
77017;BME280;65949;53.132;17.930;2023-11-19T07:39:37;100955.20;;;0.39;87.07
77017;BME280;65949;53.132;17.930;2023-11-19T07:42:07;100950.08;;;0.42;87.36
77017;BME280;65949;53.132;17.930;2023-11-19T07:44:34;100944.27;;;0.45;87.19
77017;BME280;65949;53.132;17.930;2023-11-19T07:47:00;100936.53;;;0.47;87.01
77017;BME280;65949;53.132;17.930;2023-11-19T07:49:27;100930.39;;;0.48;86.90
77017;BME280;65949;53.132;17.930;2023-11-19T07:51:54;100924.52;;;0.49;86.78
77017;BME280;65949;53.132;17.930;2023-11-19T07:54:20;100919.95;;;0.50;86.69
77017;BME280;65949;53.132;17.930;2023-11-19T07:56:47;100914.69;;;0.51;86.77
77017;BME280;65949;53.132;17.930;2023-11-19T07:59:16;100907.96;;;0.53;87.03
77017;BME280;65949;53.132;17.930;2023-11-19T08:01:42;100904.39;;;0.55;86.78
77017;BME280;65949;53.132;17.930;2023-11-19T08:04:09;100898.04;;;0.58;86.79
77017;BME280;65949;53.132;17.930;2023-11-19T08:06:36;100891.59;;;0.61;86.69
77017;BME280;65949;53.132;17.930;2023-11-19T08:09:03;100884.08;;;0.62;86.46
77017;BME280;65949;53.132;17.930;2023-11-19T08:11:30;100882.12;;;0.64;86.43
77017;BME280;65949;53.132;17.930;2023-11-19T08:13:56;100884.74;;;0.65;86.51
77017;BME280;65949;53.132;17.930;2023-11-19T08:16:23;100886.02;;;0.67;86.59
77017;BME280;65949;53.132;17.930;2023-11-19T08:18:50;100881.84;;;0.68;86.32
77017;BME280;65949;53.132;17.930;2023-11-19T08:21:16;100879.08;;;0.68;86.21
77017;BME280;65949;53.132;17.930;2023-11-19T08:23:43;100875.92;;;0.69;86.24
77017;BME280;65949;53.132;17.930;2023-11-19T08:26:10;100871.78;;;0.72;86.23
77017;BME280;65949;53.132;17.930;2023-11-19T08:28:37;100862.64;;;0.74;86.05
77017;BME280;65949;53.132;17.930;2023-11-19T08:31:04;100854.09;;;0.75;85.76
77017;BME280;65949;53.132;17.930;2023-11-19T08:33:32;100855.76;;;0.76;85.89
77017;BME280;65949;53.132;17.930;2023-11-19T08:35:58;100854.27;;;0.78;85.99
77017;BME280;65949;53.132;17.930;2023-11-19T08:38:25;100848.56;;;0.80;85.72
77017;BME280;65949;53.132;17.930;2023-11-19T08:40:52;100838.89;;;0.79;85.65
77017;BME280;65949;53.132;17.930;2023-11-19T08:43:18;100832.67;;;0.81;85.68
77017;BME280;65949;53.132;17.930;2023-11-19T08:45:45;100823.56;;;0.82;85.54
77017;BME280;65949;53.132;17.930;2023-11-19T08:48:12;100815.63;;;0.84;85.62
77017;BME280;65949;53.132;17.930;2023-11-19T08:50:38;100819.31;;;0.87;85.60
77017;BME280;65949;53.132;17.930;2023-11-19T08:53:05;100811.77;;;0.91;85.60
77017;BME280;65949;53.132;17.930;2023-11-19T08:55:33;100800.13;;;0.97;85.40
77017;BME280;65949;53.132;17.930;2023-11-19T08:57:59;100799.27;;;1.05;85.64
77017;BME280;65949;53.132;17.930;2023-11-19T09:00:26;100798.46;;;1.13;85.34
77017;BME280;65949;53.132;17.930;2023-11-19T09:02:52;100796.66;;;1.21;85.29
77017;BME280;65949;53.132;17.930;2023-11-19T09:05:19;100794.28;;;1.26;84.90
77017;BME280;65949;53.132;17.930;2023-11-19T09:07:46;100798.42;;;1.30;84.64
77017;BME280;65949;53.132;17.930;2023-11-19T09:10:12;100791.28;;;1.32;84.62
77017;BME280;65949;53.132;17.930;2023-11-19T09:12:39;100785.08;;;1.32;84.75
77017;BME280;65949;53.132;17.930;2023-11-19T09:15:06;100782.39;;;1.33;84.93
77017;BME280;65949;53.132;17.930;2023-11-19T09:17:33;100777.70;;;1.34;84.93
77017;BME280;65949;53.132;17.930;2023-11-19T09:19:59;100771.78;;;1.33;84.74
77017;BME280;65949;53.132;17.930;2023-11-19T09:22:27;100766.38;;;1.29;84.78
77017;BME280;65949;53.132;17.930;2023-11-19T09:24:53;100755.51;;;1.28;85.18
77017;BME280;65949;53.132;17.930;2023-11-19T09:27:20;100747.14;;;1.28;85.07
77017;BME280;65949;53.132;17.930;2023-11-19T09:29:47;100742.81;;;1.30;85.33
77017;BME280;65949;53.132;17.930;2023-11-19T09:32:15;100736.38;;;1.33;85.61
77017;BME280;65949;53.132;17.930;2023-11-19T09:34:42;100732.38;;;1.37;85.42
77017;BME280;65949;53.132;17.930;2023-11-19T09:37:08;100723.96;;;1.38;85.44
77017;BME280;65949;53.132;17.930;2023-11-19T09:39:35;100719.39;;;1.39;85.26
77017;BME280;65949;53.132;17.930;2023-11-19T09:42:01;100714.54;;;1.42;85.43
77017;BME280;65949;53.132;17.930;2023-11-19T09:44:28;100706.77;;;1.44;85.41
77017;BME280;65949;53.132;17.930;2023-11-19T09:46:57;100702.54;;;1.46;85.47
77017;BME280;65949;53.132;17.930;2023-11-19T09:49:26;100694.26;;;1.48;85.35
77017;BME280;65949;53.132;17.930;2023-11-19T09:51:53;100690.58;;;1.47;84.82
77017;BME280;65949;53.132;17.930;2023-11-19T09:54:20;100689.83;;;1.48;85.13
77017;BME280;65949;53.132;17.930;2023-11-19T09:56:47;100680.36;;;1.50;85.12
77017;BME280;65949;53.132;17.930;2023-11-19T09:59:14;100676.48;;;1.51;84.95
77017;BME280;65949;53.132;17.930;2023-11-19T10:01:42;100669.45;;;1.49;85.08
77017;BME280;65949;53.132;17.930;2023-11-19T10:04:11;100667.04;;;1.49;85.21
77017;BME280;65949;53.132;17.930;2023-11-19T10:06:42;100659.45;;;1.50;85.31
77017;BME280;65949;53.132;17.930;2023-11-19T10:09:08;100659.98;;;1.51;85.20
77017;BME280;65949;53.132;17.930;2023-11-19T10:11:35;100653.81;;;1.52;85.14
77017;BME280;65949;53.132;17.930;2023-11-19T10:14:02;100650.30;;;1.54;85.12
77017;BME280;65949;53.132;17.930;2023-11-19T10:16:29;100646.37;;;1.58;85.22
77017;BME280;65949;53.132;17.930;2023-11-19T10:18:57;100644.77;;;1.66;85.34
77017;BME280;65949;53.132;17.930;2023-11-19T10:21:24;100641.77;;;1.73;85.25
77017;BME280;65949;53.132;17.930;2023-11-19T10:23:52;100640.43;;;1.75;84.99
77017;BME280;65949;53.132;17.930;2023-11-19T10:26:20;100639.45;;;1.76;84.65
77017;BME280;65949;53.132;17.930;2023-11-19T10:28:47;100634.61;;;1.75;84.64
77017;BME280;65949;53.132;17.930;2023-11-19T10:31:18;100630.03;;;1.72;84.60
77017;BME280;65949;53.132;17.930;2023-11-19T10:33:45;100624.30;;;1.69;84.45
77017;BME280;65949;53.132;17.930;2023-11-19T10:36:14;100621.77;;;1.67;84.85
77017;BME280;65949;53.132;17.930;2023-11-19T10:38:51;100617.98;;;1.67;84.94
77017;BME280;65949;53.132;17.930;2023-11-19T10:41:32;100616.48;;;1.67;85.11
77017;BME280;65949;53.132;17.930;2023-11-19T10:43:59;100615.59;;;1.67;85.04
77017;BME280;65949;53.132;17.930;2023-11-19T10:46:55;100608.36;;;1.68;85.37
77017;BME280;65949;53.132;17.930;2023-11-19T10:49:22;100602.64;;;1.69;85.26
77017;BME280;65949;53.132;17.930;2023-11-19T10:51:49;100600.54;;;1.70;85.49
77017;BME280;65949;53.132;17.930;2023-11-19T10:54:19;100597.41;;;1.72;85.58
77017;BME280;65949;53.132;17.930;2023-11-19T10:56:51;100593.52;;;1.74;85.44
77017;BME280;65949;53.132;17.930;2023-11-19T10:59:21;100590.22;;;1.69;85.49
77017;BME280;65949;53.132;17.930;2023-11-19T11:01:50;100585.77;;;1.64;85.78
77017;BME280;65949;53.132;17.930;2023-11-19T11:04:25;100580.29;;;1.58;86.06
77017;BME280;65949;53.132;17.930;2023-11-19T11:06:54;100572.62;;;1.54;86.21
77017;BME280;65949;53.132;17.930;2023-11-19T11:09:27;100568.73;;;1.51;86.70
77017;BME280;65949;53.132;17.930;2023-11-19T11:11:55;100564.10;;;1.46;86.83
77017;BME280;65949;53.132;17.930;2023-11-19T11:14:24;100558.69;;;1.40;87.34
77017;BME280;65949;53.132;17.930;2023-11-19T11:16:53;100556.95;;;1.35;87.53
77017;BME280;65949;53.132;17.930;2023-11-19T11:19:19;100550.30;;;1.31;87.77
77017;BME280;65949;53.132;17.930;2023-11-19T11:21:51;100541.30;;;1.28;87.89
77017;BME280;65949;53.132;17.930;2023-11-19T11:35:50;100504.61;;;1.01;89.50
77017;BME280;65949;53.132;17.930;2023-11-19T11:38:22;100495.52;;;0.96;89.86
77017;BME280;65949;53.132;17.930;2023-11-19T11:41:15;100485.52;;;0.93;90.00
77017;BME280;65949;53.132;17.930;2023-11-19T11:43:50;100480.11;;;0.89;90.31
77017;BME280;65949;53.132;17.930;2023-11-19T11:49:06;100463.52;;;0.82;90.78
77017;BME280;65949;53.132;17.930;2023-11-19T11:51:59;100458.30;;;0.79;91.18
77017;BME280;65949;53.132;17.930;2023-11-19T11:54:27;100459.16;;;0.76;91.08
77017;BME280;65949;53.132;17.930;2023-11-19T11:57:09;100459.34;;;0.75;91.45
77017;BME280;65949;53.132;17.930;2023-11-19T12:02:11;100439.89;;;0.72;91.63
77017;BME280;65949;53.132;17.930;2023-11-19T12:04:39;100437.51;;;0.70;92.04
77017;BME280;65949;53.132;17.930;2023-11-19T12:07:08;100437.15;;;0.69;91.90
77017;BME280;65949;53.132;17.930;2023-11-19T12:09:40;100435.50;;;0.69;91.89
77017;BME280;65949;53.132;17.930;2023-11-19T12:12:17;100428.92;;;0.71;92.11
77017;BME280;65949;53.132;17.930;2023-11-19T12:15:04;100419.69;;;0.72;92.00
77017;BME280;65949;53.132;17.930;2023-11-19T12:20:05;100392.54;;;0.72;92.44
77017;BME280;65949;53.132;17.930;2023-11-19T12:22:38;100376.76;;;0.71;92.52
77017;BME280;65949;53.132;17.930;2023-11-19T12:25:07;100378.84;;;0.69;92.89
77017;BME280;65949;53.132;17.930;2023-11-19T12:27:43;100384.23;;;0.68;92.74
77017;BME280;65949;53.132;17.930;2023-11-19T12:30:10;100380.11;;;0.70;92.74
77017;BME280;65949;53.132;17.930;2023-11-19T12:35:05;100361.33;;;0.72;92.95
77017;BME280;65949;53.132;17.930;2023-11-19T12:37:33;100383.23;;;0.72;92.93
77017;BME280;65949;53.132;17.930;2023-11-19T12:39:59;100406.63;;;0.72;92.88
77017;BME280;65949;53.132;17.930;2023-11-19T12:42:36;100418.85;;;0.72;92.92
77017;BME280;65949;53.132;17.930;2023-11-19T12:45:04;100406.28;;;0.73;92.92
77017;BME280;65949;53.132;17.930;2023-11-19T12:47:31;100384.17;;;0.75;93.01
77017;BME280;65949;53.132;17.930;2023-11-19T12:49:58;100370.89;;;0.78;93.02
77017;BME280;65949;53.132;17.930;2023-11-19T12:52:25;100365.60;;;0.80;92.84
77017;BME280;65949;53.132;17.930;2023-11-19T12:54:51;100363.70;;;0.80;92.94
77017;BME280;65949;53.132;17.930;2023-11-19T12:57:18;100361.21;;;0.80;93.20
77017;BME280;65949;53.132;17.930;2023-11-19T12:59:55;100358.48;;;0.80;93.01
77017;BME280;65949;53.132;17.930;2023-11-19T13:02:23;100357.23;;;0.79;93.42
77017;BME280;65949;53.132;17.930;2023-11-19T13:05:30;100356.96;;;0.78;93.34
77017;BME280;65949;53.132;17.930;2023-11-19T13:08:04;100350.52;;;0.78;93.52
77017;BME280;65949;53.132;17.930;2023-11-19T13:10:33;100343.02;;;0.77;93.66
77017;BME280;65949;53.132;17.930;2023-11-19T13:13:04;100340.63;;;0.78;93.62
77017;BME280;65949;53.132;17.930;2023-11-19T13:15:32;100342.84;;;0.78;93.54